Bettendorf, IA (52722)

8:11 AM CDT on October 25, 2014 (GMT -0500)
Central Bettendorf | Change Station
CLOSE
Current Station
Personal Weather Station
Location: Bettendorf, IA
Elevation: 665 ft
Nearby Weather Stations
Active Advisory: Dense Fog Advisory

Elev 665 ft 41.53 °N, 90.50 °W | Updated 2 seconds ago

Fog
Fog
54.9 °F
Feels Like 54.9 °F
N
3.1
Wind Variable Wind from West
Gusts 4.2 mph

Today
High -- | Low -- °F
--% Chance of Precip.
Yesterday
High -- | Low -- °F
Precip. -- in
7:25 AM 6:05 PM
Waxing Crescent, 3% visible
Pressure 30.00 in
Visibility 0.2 miles
Clouds
Dew Point 43 °F
Humidity 65%
Rainfall 0.00 in
Snow Depth Not available.
UV Not available.
Pollen 1.70 out of 12
Air Quality Not available.
Flu Activity Sporadic
METAR KDVN 251252Z AUTO 30006KT M1/4SM FG VV002 10/09 A3000 RMK AO2 SLP158 T01000094 TSNO

More Conditions Fewer Conditions

Pressure 30.00 in
Visibility 0.2 miles
Clouds
Dew Point 43 °F
Humidity 65%
Rainfall 0.00 in
Snow Depth Not available.
UV Not available.
Pollen 1.70 out of 12
Air Quality Not available.
Flu Activity Sporadic
METAR KDVN 251252Z AUTO 30006KT M1/4SM FG VV002 10/09 A3000 RMK AO2 SLP158 T01000094 TSNO

More Conditions Fewer Conditions

10-Day Weather Forecast

Almanac

Astronomy

Oct. 25, 2014 Rise Set
Actual Time 7:25 AM CDT 6:05 PM CDT
Civil Twilight 6:56 AM CDT 6:34 PM CDT
Nautical Twilight 6:24 AM CDT 7:06 PM CDT
Astronomical Twilight 5:52 AM CDT 7:38 PM CDT
Moon 9:05 AM CDT 7:27 PM CDT
Length of Visible Light 11h 37m
Length of Day
10h 40m
Tomorrow will be 2m 33s shorter.
Waxing Crescent, 3% of the Moon is Illuminated
Today
Waxing Crescent
Oct 30
First Quarter
Nov 6
Full
Nov 14
Last Quarter
Nov 22
New

Today's Extremes

State Highs State Lows

Community

WunderPhotos

Upload Photos

1,764,824 photos uploaded!

Nearby

Snow Depth

Station Depth Elevation
No new snow has been reported.

Earthquake Activity

City Distance Mag. Time & Date
No recent earthquake activity has been reported nearby.
Minimum magnitude displayed is 2.5.

Coastal Water Temperatures

Place Temperature
No Stations Reporting

Nearby Weather Stations